HKE299 RPLC-VHHH
Flight info
| Callsign | HKE299 |
|---|---|
| Flight time | 1h 39m |
| Altitude | 36000 |
| Route | MALIB2C MALIB W4 SANRO A461 NOMAN DCT OSUMO DCT BETTY |
| Aircraft | A21N/M-SDE2E3FGHIRWXY/LB1 |
Departure
| Time | 2026-05-04 09:29 |
|---|---|
| Airport | Clark International Airport / Clark Air Base (RPLC) |
Arrival
| Time | 2026-05-04 11:08 |
|---|---|
| Airport | Hong Kong International Airport (VHHH) |
| Time | Latitude | Longitude | Altitude | Speed | Heading |
|---|---|---|---|---|---|
| 2026-05-04 08:49 | 15.19449 | 120.55986 | 427 ft | 0 kts | 290° |
| 2026-05-04 09:01 | 15.19449 | 120.55987 | 439 ft | 0 kts | 290° |
| 2026-05-04 09:19 | 15.19444 | 120.55999 | 428 ft | 2 kts | 290° |
| 2026-05-04 09:19 | 15.19439 | 120.56015 | 428 ft | 2 kts | 290° |
| 2026-05-04 09:19 | 15.19433 | 120.56030 | 434 ft | 2 kts | 304° |
| 2026-05-04 09:19 | 15.19421 | 120.56042 | 424 ft | 2 kts | 325° |
| 2026-05-04 09:20 | 15.19407 | 120.56049 | 429 ft | 2 kts | 4° |
| 2026-05-04 09:20 | 15.19405 | 120.56049 | 430 ft | 0 kts | 15° |
| 2026-05-04 09:23 | 15.19404 | 120.56049 | 430 ft | 0 kts | 15° |
| 2026-05-04 09:25 | 15.19473 | 120.56292 | 437 ft | 8 kts | 24° |
| 2026-05-04 09:25 | 15.19528 | 120.56311 | 427 ft | 8 kts | 19° |
| 2026-05-04 09:26 | 15.19613 | 120.56345 | 430 ft | 15 kts | 22° |
| 2026-05-04 09:26 | 15.19710 | 120.56383 | 435 ft | 15 kts | 21° |
| 2026-05-04 09:26 | 15.19802 | 120.56419 | 437 ft | 14 kts | 20° |
| 2026-05-04 09:26 | 15.19910 | 120.56463 | 434 ft | 26 kts | 21° |
| 2026-05-04 09:27 | 15.20030 | 120.56510 | 427 ft | 16 kts | 20° |
| 2026-05-04 09:27 | 15.20128 | 120.56558 | 424 ft | 14 kts | 50° |
| 2026-05-04 09:27 | 15.20152 | 120.56650 | 428 ft | 13 kts | 89° |
| 2026-05-04 09:27 | 15.20157 | 120.56777 | 438 ft | 18 kts | 106° |
| 2026-05-04 09:28 | 15.20067 | 120.56827 | 428 ft | 15 kts | 195° |
| 2026-05-04 09:28 | 15.19828 | 120.56733 | 431 ft | 62 kts | 201° |
| 2026-05-04 09:28 | 15.19268 | 120.56512 | 425 ft | 111 kts | 201° |
| 2026-05-04 09:28 | 15.18382 | 120.56160 | 434 ft | 159 kts | 199° |
| 2026-05-04 09:29 | 15.17300 | 120.55702 | 667 ft | 167 kts | 197° |
| 2026-05-04 09:29 | 15.16274 | 120.55268 | 1246 ft | 158 kts | 194° |
| 2026-05-04 09:29 | 15.15170 | 120.54855 | 1491 ft | 180 kts | 193° |
| 2026-05-04 09:29 | 15.13914 | 120.54391 | 1672 ft | 203 kts | 193° |
| 2026-05-04 09:30 | 15.12519 | 120.53882 | 1851 ft | 221 kts | 190° |
| 2026-05-04 09:30 | 15.10980 | 120.53890 | 2003 ft | 230 kts | 154° |
| 2026-05-04 09:30 | 15.09783 | 120.54953 | 2325 ft | 235 kts | 116° |
| 2026-05-04 09:30 | 15.09511 | 120.56605 | 2836 ft | 239 kts | 78° |
| 2026-05-04 09:31 | 15.10293 | 120.58091 | 3376 ft | 249 kts | 43° |
| 2026-05-04 09:31 | 15.11874 | 120.58866 | 3863 ft | 261 kts | 7° |
| 2026-05-04 09:31 | 15.13652 | 120.58547 | 4525 ft | 263 kts | 336° |
| 2026-05-04 09:31 | 15.15286 | 120.57720 | 5316 ft | 258 kts | 337° |
| 2026-05-04 09:32 | 15.16917 | 120.56999 | 6145 ft | 252 kts | 342° |
| 2026-05-04 09:32 | 15.18581 | 120.56438 | 6767 ft | 253 kts | 346° |
| 2026-05-04 09:34 | 15.31351 | 120.54419 | 10786 ft | 277 kts | 355° |
| 2026-05-04 09:34 | 15.33279 | 120.54165 | 11299 ft | 281 kts | 356° |
| 2026-05-04 09:34 | 15.35226 | 120.53910 | 11858 ft | 284 kts | 355° |
| 2026-05-04 09:34 | 15.37202 | 120.53652 | 12382 ft | 289 kts | 355° |
| 2026-05-04 09:35 | 15.39206 | 120.53389 | 12937 ft | 292 kts | 355° |
| 2026-05-04 09:35 | 15.41234 | 120.53124 | 13484 ft | 296 kts | 355° |
| 2026-05-04 09:35 | 15.43296 | 120.52855 | 13975 ft | 301 kts | 355° |
| 2026-05-04 09:35 | 15.45381 | 120.52583 | 14498 ft | 303 kts | 354° |
| 2026-05-04 09:37 | 15.60366 | 120.50633 | 18142 ft | 319 kts | 353° |
| 2026-05-04 09:37 | 15.62579 | 120.50345 | 18553 ft | 322 kts | 353° |
| 2026-05-04 09:38 | 15.64815 | 120.50055 | 18947 ft | 326 kts | 353° |
| 2026-05-04 09:38 | 15.67080 | 120.49760 | 19332 ft | 330 kts | 353° |
| 2026-05-04 09:38 | 15.69344 | 120.49466 | 19715 ft | 334 kts | 353° |
| 2026-05-04 09:38 | 15.71659 | 120.49163 | 20102 ft | 338 kts | 353° |
| 2026-05-04 09:39 | 15.73998 | 120.48856 | 20508 ft | 341 kts | 353° |
| 2026-05-04 09:39 | 15.76360 | 120.48546 | 20925 ft | 343 kts | 353° |
| 2026-05-04 09:39 | 15.78742 | 120.48232 | 21327 ft | 347 kts | 353° |
| 2026-05-04 09:39 | 15.81148 | 120.47916 | 21718 ft | 350 kts | 353° |
| 2026-05-04 09:40 | 15.83573 | 120.47597 | 22112 ft | 353 kts | 353° |
| 2026-05-04 09:40 | 15.86024 | 120.47274 | 22492 ft | 356 kts | 353° |
| 2026-05-04 09:40 | 15.88494 | 120.46949 | 22867 ft | 360 kts | 353° |
| 2026-05-04 09:40 | 15.90988 | 120.46621 | 23240 ft | 363 kts | 353° |
| 2026-05-04 09:41 | 15.93501 | 120.46291 | 23587 ft | 366 kts | 353° |
| 2026-05-04 09:42 | 16.11535 | 120.43915 | 25686 ft | 380 kts | 352° |
| 2026-05-04 09:43 | 16.14173 | 120.43567 | 25965 ft | 383 kts | 351° |
| 2026-05-04 09:43 | 16.16786 | 120.43222 | 26236 ft | 385 kts | 351° |
| 2026-05-04 09:43 | 16.19450 | 120.42871 | 26507 ft | 387 kts | 351° |
| 2026-05-04 09:43 | 16.22123 | 120.42518 | 26772 ft | 389 kts | 351° |
| 2026-05-04 09:44 | 16.24819 | 120.42162 | 27025 ft | 391 kts | 351° |
| 2026-05-04 09:44 | 16.27526 | 120.41805 | 27274 ft | 394 kts | 351° |
| 2026-05-04 09:44 | 16.30254 | 120.41444 | 27522 ft | 396 kts | 351° |
| 2026-05-04 09:46 | 16.48751 | 120.38999 | 29000 ft | 409 kts | 351° |
| 2026-05-04 09:46 | 16.51579 | 120.38625 | 29191 ft | 411 kts | 351° |
| 2026-05-04 09:46 | 16.54420 | 120.38249 | 29412 ft | 412 kts | 351° |
| 2026-05-04 09:47 | 16.57268 | 120.37872 | 29605 ft | 414 kts | 351° |
| 2026-05-04 09:47 | 16.60138 | 120.37492 | 29769 ft | 417 kts | 351° |
| 2026-05-04 09:49 | 16.78418 | 120.29800 | 30964 ft | 413 kts | 313° |
| 2026-05-04 09:49 | 16.80428 | 120.27657 | 31116 ft | 414 kts | 312° |
| 2026-05-04 09:49 | 16.82380 | 120.25502 | 31283 ft | 414 kts | 311° |
| 2026-05-04 09:51 | 16.94279 | 120.12298 | 32254 ft | 418 kts | 311° |
| 2026-05-04 09:51 | 16.96285 | 120.10094 | 32420 ft | 419 kts | 311° |
| 2026-05-04 09:51 | 16.98296 | 120.07886 | 32570 ft | 420 kts | 311° |
| 2026-05-04 09:51 | 17.00308 | 120.05676 | 32720 ft | 420 kts | 311° |
| 2026-05-04 09:52 | 17.02321 | 120.03464 | 32907 ft | 420 kts | 311° |
| 2026-05-04 09:52 | 17.04332 | 120.01254 | 33073 ft | 420 kts | 311° |
| 2026-05-04 09:52 | 17.06344 | 119.99039 | 33218 ft | 421 kts | 311° |
| 2026-05-04 09:52 | 17.08363 | 119.96817 | 33356 ft | 421 kts | 311° |
| 2026-05-04 09:53 | 17.10380 | 119.94595 | 33499 ft | 422 kts | 311° |
| 2026-05-04 09:53 | 17.12377 | 119.92395 | 33631 ft | 422 kts | 311° |
| 2026-05-04 09:53 | 17.14401 | 119.90165 | 33767 ft | 423 kts | 311° |
| 2026-05-04 09:53 | 17.16425 | 119.87934 | 33875 ft | 424 kts | 311° |
| 2026-05-04 09:54 | 17.18464 | 119.85686 | 33902 ft | 427 kts | 311° |
| 2026-05-04 09:54 | 17.22573 | 119.81151 | 33905 ft | 431 kts | 311° |
| 2026-05-04 09:55 | 17.26704 | 119.76591 | 33900 ft | 432 kts | 311° |
| 2026-05-04 09:55 | 17.30840 | 119.72023 | 33903 ft | 432 kts | 311° |
| 2026-05-04 09:56 | 17.34976 | 119.67452 | 33906 ft | 432 kts | 311° |
| 2026-05-04 09:56 | 17.39082 | 119.62910 | 33909 ft | 432 kts | 311° |
| 2026-05-04 09:57 | 17.43211 | 119.58339 | 33908 ft | 432 kts | 311° |
| 2026-05-04 09:57 | 17.47339 | 119.53765 | 33908 ft | 432 kts | 311° |
| 2026-05-04 09:58 | 17.51474 | 119.49180 | 33911 ft | 434 kts | 311° |
| 2026-05-04 09:58 | 17.55625 | 119.44575 | 33908 ft | 435 kts | 311° |
| 2026-05-04 10:00 | 17.72232 | 119.26118 | 33914 ft | 435 kts | 310° |
| 2026-05-04 10:04 | 18.01439 | 118.93528 | 33921 ft | 439 kts | 311° |
| 2026-05-04 10:04 | 18.05627 | 118.88839 | 33919 ft | 440 kts | 311° |
| 2026-05-04 10:05 | 18.09819 | 118.84141 | 33923 ft | 440 kts | 311° |
| 2026-05-04 10:05 | 18.14006 | 118.79448 | 33923 ft | 439 kts | 310° |
| 2026-05-04 10:06 | 18.18174 | 118.74773 | 33925 ft | 438 kts | 310° |
| 2026-05-04 10:06 | 18.22340 | 118.70095 | 33926 ft | 438 kts | 310° |
| 2026-05-04 10:08 | 18.36903 | 118.53715 | 33930 ft | 438 kts | 310° |
| 2026-05-04 10:08 | 18.41032 | 118.49065 | 33933 ft | 438 kts | 310° |
| 2026-05-04 10:09 | 18.45185 | 118.44382 | 33933 ft | 438 kts | 310° |
| 2026-05-04 10:09 | 18.49318 | 118.39719 | 33940 ft | 437 kts | 309° |
| 2026-05-04 10:10 | 18.53448 | 118.35057 | 33940 ft | 434 kts | 309° |
| 2026-05-04 10:10 | 18.57564 | 118.30406 | 33939 ft | 433 kts | 309° |
| 2026-05-04 10:11 | 18.61674 | 118.25757 | 33939 ft | 433 kts | 309° |
| 2026-05-04 10:11 | 18.65784 | 118.21105 | 33939 ft | 433 kts | 309° |
| 2026-05-04 10:12 | 18.69892 | 118.16452 | 33939 ft | 433 kts | 309° |
| 2026-05-04 10:12 | 18.74000 | 118.11796 | 33941 ft | 433 kts | 309° |
| 2026-05-04 10:13 | 18.78104 | 118.07141 | 33948 ft | 433 kts | 309° |
| 2026-05-04 10:13 | 18.82214 | 118.02475 | 33948 ft | 434 kts | 309° |
| 2026-05-04 10:14 | 18.86304 | 117.97828 | 33957 ft | 435 kts | 309° |
| 2026-05-04 10:16 | 18.97729 | 117.84829 | 33946 ft | 441 kts | 309° |
| 2026-05-04 10:16 | 19.01929 | 117.80041 | 33949 ft | 448 kts | 309° |
| 2026-05-04 10:17 | 19.06200 | 117.75170 | 33955 ft | 455 kts | 309° |
| 2026-05-04 10:19 | 19.23484 | 117.55424 | 33962 ft | 457 kts | 310° |
| 2026-05-04 10:19 | 19.27792 | 117.50492 | 33959 ft | 456 kts | 310° |
| 2026-05-04 10:20 | 19.32094 | 117.45561 | 33967 ft | 456 kts | 310° |
| 2026-05-04 10:20 | 19.36420 | 117.40597 | 33971 ft | 461 kts | 310° |
| 2026-05-04 10:21 | 19.40767 | 117.35607 | 33957 ft | 461 kts | 310° |
| 2026-05-04 10:21 | 19.45110 | 117.30619 | 33958 ft | 461 kts | 310° |
| 2026-05-04 10:22 | 19.51597 | 117.23158 | 33971 ft | 461 kts | 310° |
| 2026-05-04 10:23 | 19.55918 | 117.18183 | 33968 ft | 461 kts | 310° |
| 2026-05-04 10:25 | 19.73332 | 116.98090 | 33966 ft | 463 kts | 308° |
| 2026-05-04 10:25 | 19.77686 | 116.93055 | 33965 ft | 463 kts | 308° |
| 2026-05-04 10:26 | 19.82042 | 116.88013 | 33965 ft | 463 kts | 308° |
| 2026-05-04 10:26 | 19.86393 | 116.82973 | 33968 ft | 463 kts | 309° |
| 2026-05-04 10:27 | 19.90743 | 116.77930 | 33969 ft | 463 kts | 309° |
| 2026-05-04 10:27 | 19.95095 | 116.72880 | 33972 ft | 463 kts | 309° |
| 2026-05-04 10:28 | 19.99339 | 116.67748 | 33973 ft | 460 kts | 302° |
| 2026-05-04 10:28 | 20.02615 | 116.61960 | 33972 ft | 456 kts | 295° |
| 2026-05-04 10:29 | 20.05596 | 116.56006 | 33979 ft | 456 kts | 294° |
| 2026-05-04 10:29 | 20.08505 | 116.50044 | 33974 ft | 453 kts | 294° |
| 2026-05-04 10:30 | 20.11415 | 116.44097 | 33975 ft | 453 kts | 294° |
| 2026-05-04 10:30 | 20.14319 | 116.38193 | 33977 ft | 453 kts | 295° |
| 2026-05-04 10:31 | 20.17219 | 116.32304 | 33976 ft | 453 kts | 295° |
| 2026-05-04 10:32 | 20.27398 | 116.11587 | 33976 ft | 450 kts | 295° |
| 2026-05-04 10:33 | 20.30294 | 116.05675 | 33976 ft | 450 kts | 295° |
| 2026-05-04 10:33 | 20.33186 | 115.99767 | 33934 ft | 449 kts | 295° |
| 2026-05-04 10:34 | 20.34620 | 115.96837 | 33680 ft | 449 kts | 294° |
| 2026-05-04 10:34 | 20.36069 | 115.93872 | 33426 ft | 451 kts | 295° |
| 2026-05-04 10:34 | 20.37516 | 115.90907 | 33180 ft | 452 kts | 295° |
| 2026-05-04 10:34 | 20.38971 | 115.87926 | 32930 ft | 453 kts | 295° |
| 2026-05-04 10:35 | 20.40427 | 115.84945 | 32695 ft | 454 kts | 295° |
| 2026-05-04 10:35 | 20.41886 | 115.81953 | 32454 ft | 455 kts | 294° |
| 2026-05-04 10:35 | 20.43348 | 115.78956 | 32219 ft | 456 kts | 294° |
| 2026-05-04 10:35 | 20.44811 | 115.75954 | 31971 ft | 457 kts | 294° |
| 2026-05-04 10:36 | 20.46277 | 115.72944 | 31731 ft | 458 kts | 294° |
| 2026-05-04 10:36 | 20.47749 | 115.69921 | 31496 ft | 459 kts | 294° |
| 2026-05-04 10:36 | 20.49222 | 115.66892 | 31261 ft | 461 kts | 294° |
| 2026-05-04 10:36 | 20.50699 | 115.63855 | 31031 ft | 462 kts | 294° |
| 2026-05-04 10:37 | 20.52148 | 115.60874 | 30809 ft | 463 kts | 294° |
| 2026-05-04 10:37 | 20.53631 | 115.57820 | 30586 ft | 464 kts | 294° |
| 2026-05-04 10:37 | 20.55257 | 115.54836 | 30347 ft | 470 kts | 304° |
| 2026-05-04 10:37 | 20.57458 | 115.52175 | 30120 ft | 474 kts | 310° |
| 2026-05-04 10:39 | 20.71355 | 115.37513 | 28581 ft | 460 kts | 311° |
| 2026-05-04 10:39 | 20.73633 | 115.35125 | 28320 ft | 457 kts | 311° |
| 2026-05-04 10:39 | 20.75897 | 115.32751 | 28082 ft | 455 kts | 311° |
| 2026-05-04 10:40 | 20.77423 | 115.31149 | 27914 ft | 454 kts | 311° |
| 2026-05-04 10:40 | 20.79668 | 115.28793 | 27676 ft | 452 kts | 311° |
| 2026-05-04 10:40 | 20.81874 | 115.26478 | 27433 ft | 448 kts | 311° |
| 2026-05-04 10:40 | 20.84091 | 115.24149 | 27190 ft | 445 kts | 311° |
| 2026-05-04 10:41 | 20.86294 | 115.21833 | 26943 ft | 443 kts | 311° |
| 2026-05-04 10:41 | 20.88489 | 115.19526 | 26715 ft | 441 kts | 311° |
| 2026-05-04 10:41 | 20.90671 | 115.17231 | 26480 ft | 440 kts | 311° |
| 2026-05-04 10:41 | 20.92846 | 115.14942 | 26246 ft | 438 kts | 310° |
| 2026-05-04 10:42 | 20.95009 | 115.12665 | 26041 ft | 436 kts | 310° |
| 2026-05-04 10:42 | 20.97164 | 115.10395 | 25998 ft | 435 kts | 310° |
| 2026-05-04 10:42 | 20.99322 | 115.08121 | 25996 ft | 435 kts | 310° |
| 2026-05-04 10:42 | 21.01471 | 115.05856 | 25765 ft | 433 kts | 310° |
| 2026-05-04 10:43 | 21.03614 | 115.03596 | 25122 ft | 432 kts | 310° |
| 2026-05-04 10:44 | 21.18052 | 114.88349 | 21164 ft | 400 kts | 311° |
| 2026-05-04 10:45 | 21.20023 | 114.86265 | 20578 ft | 396 kts | 311° |
| 2026-05-04 10:45 | 21.21959 | 114.84215 | 20005 ft | 392 kts | 311° |
| 2026-05-04 10:45 | 21.23890 | 114.82171 | 19438 ft | 389 kts | 311° |
| 2026-05-04 10:45 | 21.25806 | 114.80141 | 18880 ft | 385 kts | 311° |
| 2026-05-04 10:46 | 21.27699 | 114.78135 | 18323 ft | 381 kts | 311° |
| 2026-05-04 10:46 | 21.29575 | 114.76146 | 17679 ft | 378 kts | 311° |
| 2026-05-04 10:46 | 21.31442 | 114.74166 | 17016 ft | 376 kts | 311° |
| 2026-05-04 10:46 | 21.33295 | 114.72199 | 16353 ft | 374 kts | 311° |
| 2026-05-04 10:47 | 21.35133 | 114.70247 | 15737 ft | 371 kts | 311° |
| 2026-05-04 10:47 | 21.36963 | 114.68304 | 15114 ft | 369 kts | 311° |
| 2026-05-04 10:47 | 21.38785 | 114.66369 | 14499 ft | 367 kts | 311° |
| 2026-05-04 10:47 | 21.40585 | 114.64456 | 13904 ft | 365 kts | 312° |
| 2026-05-04 10:49 | 21.54451 | 114.53776 | 10464 ft | 377 kts | 339° |
| 2026-05-04 10:49 | 21.56940 | 114.52950 | 9810 ft | 373 kts | 340° |
| 2026-05-04 10:50 | 21.59405 | 114.52113 | 9055 ft | 370 kts | 337° |
| 2026-05-04 10:51 | 21.71769 | 114.39466 | 6986 ft | 354 kts | 311° |
| 2026-05-04 10:52 | 21.73444 | 114.37527 | 6988 ft | 352 kts | 311° |
| 2026-05-04 10:52 | 21.75109 | 114.35598 | 6988 ft | 352 kts | 311° |
| 2026-05-04 10:52 | 21.76772 | 114.33672 | 6988 ft | 353 kts | 311° |
| 2026-05-04 10:54 | 21.87825 | 114.20869 | 6990 ft | 304 kts | 310° |
| 2026-05-04 10:54 | 21.89189 | 114.19148 | 6987 ft | 300 kts | 302° |
| 2026-05-04 10:56 | 21.96359 | 114.05448 | 3995 ft | 305 kts | 298° |
| 2026-05-04 10:56 | 21.97394 | 114.03444 | 3995 ft | 307 kts | 298° |
| 2026-05-04 10:56 | 21.98432 | 114.01432 | 3995 ft | 308 kts | 298° |
| 2026-05-04 10:57 | 21.99463 | 113.99432 | 3992 ft | 309 kts | 299° |
| 2026-05-04 10:57 | 22.00506 | 113.97409 | 3993 ft | 308 kts | 298° |
| 2026-05-04 10:57 | 22.01545 | 113.95394 | 3988 ft | 307 kts | 298° |
| 2026-05-04 10:57 | 22.02585 | 113.93375 | 3995 ft | 309 kts | 298° |
| 2026-05-04 10:58 | 22.03629 | 113.91349 | 3990 ft | 309 kts | 298° |
| 2026-05-04 10:58 | 22.04671 | 113.89322 | 3991 ft | 310 kts | 298° |
| 2026-05-04 10:58 | 22.05709 | 113.87304 | 3983 ft | 300 kts | 299° |
| 2026-05-04 10:58 | 22.06685 | 113.85410 | 3986 ft | 278 kts | 298° |
| 2026-05-04 10:59 | 22.07591 | 113.83652 | 3992 ft | 258 kts | 298° |
| 2026-05-04 10:59 | 22.08423 | 113.82036 | 4027 ft | 236 kts | 298° |
| 2026-05-04 10:59 | 22.09206 | 113.80512 | 4002 ft | 232 kts | 298° |
| 2026-05-04 10:59 | 22.09991 | 113.78990 | 3785 ft | 233 kts | 299° |
| 2026-05-04 11:00 | 22.10997 | 113.77621 | 3265 ft | 234 kts | 321° |
| 2026-05-04 11:01 | 22.20599 | 113.72636 | 1995 ft | 212 kts | 338° |
| 2026-05-04 11:02 | 22.21847 | 113.72016 | 1977 ft | 186 kts | 340° |
| 2026-05-04 11:02 | 22.22989 | 113.71698 | 2011 ft | 155 kts | 2° |
| 2026-05-04 11:05 | 22.30470 | 113.82984 | 1018 ft | 139 kts | 72° |
| 2026-05-04 11:06 | 22.30783 | 113.83975 | 878 ft | 140 kts | 72° |
| 2026-05-04 11:06 | 22.31106 | 113.84963 | 724 ft | 139 kts | 70° |
| 2026-05-04 11:06 | 22.31409 | 113.85962 | 526 ft | 140 kts | 69° |
| 2026-05-04 11:06 | 22.31741 | 113.86959 | 313 ft | 143 kts | 70° |
| 2026-05-04 11:08 | 22.32797 | 113.90557 | 35 ft | 15 kts | 98° |
| 2026-05-04 11:10 | 22.32869 | 113.91288 | 35 ft | 18 kts | 70° |
| 2026-05-04 11:12 | 22.33081 | 113.92059 | 34 ft | 8 kts | 140° |
| 2026-05-04 11:12 | 22.33032 | 113.92083 | 35 ft | 8 kts | 160° |
| 2026-05-04 11:12 | 22.32980 | 113.92103 | 35 ft | 8 kts | 160° |
| 2026-05-04 11:12 | 22.32921 | 113.92124 | 35 ft | 17 kts | 162° |
| 2026-05-04 11:13 | 22.32793 | 113.92173 | 35 ft | 20 kts | 162° |
| 2026-05-04 11:13 | 22.32667 | 113.92218 | 35 ft | 19 kts | 161° |
| 2026-05-04 11:13 | 22.32546 | 113.92263 | 35 ft | 18 kts | 161° |
| 2026-05-04 11:13 | 22.32426 | 113.92307 | 35 ft | 18 kts | 161° |
| 2026-05-04 11:14 | 22.32307 | 113.92351 | 35 ft | 18 kts | 161° |
| 2026-05-04 11:14 | 22.32221 | 113.92397 | 35 ft | 12 kts | 132° |
| 2026-05-04 11:14 | 22.32222 | 113.92462 | 34 ft | 16 kts | 68° |
| 2026-05-04 11:16 | 22.32154 | 113.92701 | 35 ft | 0 kts | 163° |
| 2026-05-04 11:19 | 22.31697 | 113.92888 | 35 ft | 7 kts | 128° |
| 2026-05-04 11:19 | 22.31694 | 113.92933 | 35 ft | 6 kts | 80° |
| 2026-05-04 11:19 | 22.31698 | 113.92955 | 35 ft | 2 kts | 81° |
| 2026-05-04 11:19 | 22.31698 | 113.92959 | 35 ft | 0 kts | 81° |